sensor_id;sensor_type;location;lat;lon;timestamp;temperature;humidity
71295;DHT22;59080;31.686;73.862;2022-08-01T00:00:25;28.30;87.30
71295;DHT22;59080;31.686;73.862;2022-08-01T00:02:53;28.40;87.40
71295;DHT22;59080;31.686;73.862;2022-08-01T00:05:23;28.30;87.40
71295;DHT22;59080;31.686;73.862;2022-08-01T00:07:50;28.30;87.40
71295;DHT22;59080;31.686;73.862;2022-08-01T00:10:18;28.30;87.40
71295;DHT22;59080;31.686;73.862;2022-08-01T00:12:47;28.30;87.40
71295;DHT22;59080;31.686;73.862;2022-08-01T00:15:17;28.30;87.40
71295;DHT22;59080;31.686;73.862;2022-08-01T00:17:46;28.30;87.40
71295;DHT22;59080;31.686;73.862;2022-08-01T00:20:16;28.30;87.40
71295;DHT22;59080;31.686;73.862;2022-08-01T00:22:44;28.30;87.40
71295;DHT22;59080;31.686;73.862;2022-08-01T00:25:12;28.30;87.40
71295;DHT22;59080;31.686;73.862;2022-08-01T00:27:40;28.30;87.40
71295;DHT22;59080;31.686;73.862;2022-08-01T00:30:09;28.30;87.40
71295;DHT22;59080;31.686;73.862;2022-08-01T00:32:38;28.30;87.40
71295;DHT22;59080;31.686;73.862;2022-08-01T00:35:06;28.30;87.40
71295;DHT22;59080;31.686;73.862;2022-08-01T00:37:35;28.30;87.40
71295;DHT22;59080;31.686;73.862;2022-08-01T00:40:03;28.30;87.50
71295;DHT22;59080;31.686;73.862;2022-08-01T00:42:32;28.30;87.50
71295;DHT22;59080;31.686;73.862;2022-08-01T00:44:59;28.30;87.50
71295;DHT22;59080;31.686;73.862;2022-08-01T00:47:28;28.30;87.50
71295;DHT22;59080;31.686;73.862;2022-08-01T00:49:55;28.30;87.50
71295;DHT22;59080;31.686;73.862;2022-08-01T00:52:24;28.30;87.50
71295;DHT22;59080;31.686;73.862;2022-08-01T00:54:52;28.30;87.50
71295;DHT22;59080;31.686;73.862;2022-08-01T00:57:21;28.20;87.50
71295;DHT22;59080;31.686;73.862;2022-08-01T00:59:49;28.20;87.50
71295;DHT22;59080;31.686;73.862;2022-08-01T01:02:22;28.30;87.50
71295;DHT22;59080;31.686;73.862;2022-08-01T01:04:50;28.20;87.50
71295;DHT22;59080;31.686;73.862;2022-08-01T01:07:29;28.30;87.50
71295;DHT22;59080;31.686;73.862;2022-08-01T01:10:15;28.20;87.50
71295;DHT22;59080;31.686;73.862;2022-08-01T01:15:37;28.20;87.50
71295;DHT22;59080;31.686;73.862;2022-08-01T01:18:11;28.30;87.50
71295;DHT22;59080;31.686;73.862;2022-08-01T01:20:43;28.20;87.50
71295;DHT22;59080;31.686;73.862;2022-08-01T01:31:51;28.30;87.50
71295;DHT22;59080;31.686;73.862;2022-08-01T01:34:23;28.20;87.50
71295;DHT22;59080;31.686;73.862;2022-08-01T01:36:54;28.30;87.50
71295;DHT22;59080;31.686;73.862;2022-08-01T01:39:28;28.30;87.50
71295;DHT22;59080;31.686;73.862;2022-08-01T01:41:58;28.30;87.40
71295;DHT22;59080;31.686;73.862;2022-08-01T01:44:28;28.30;87.50
71295;DHT22;59080;31.686;73.862;2022-08-01T01:46:58;28.30;87.40
71295;DHT22;59080;31.686;73.862;2022-08-01T01:49:28;28.30;87.40
71295;DHT22;59080;31.686;73.862;2022-08-01T01:51:59;28.30;87.40
71295;DHT22;59080;31.686;73.862;2022-08-01T01:54:49;28.30;87.40
71295;DHT22;59080;31.686;73.862;2022-08-01T01:57:18;28.30;87.40
71295;DHT22;59080;31.686;73.862;2022-08-01T01:59:48;28.30;87.40
71295;DHT22;59080;31.686;73.862;2022-08-01T02:02:18;28.30;87.40
71295;DHT22;59080;31.686;73.862;2022-08-01T02:04:47;28.30;87.40
71295;DHT22;59080;31.686;73.862;2022-08-01T02:07:21;28.30;87.30
71295;DHT22;59080;31.686;73.862;2022-08-01T02:09:51;28.30;87.30
71295;DHT22;59080;31.686;73.862;2022-08-01T02:12:21;28.30;87.30
71295;DHT22;59080;31.686;73.862;2022-08-01T02:14:52;28.40;87.30
71295;DHT22;59080;31.686;73.862;2022-08-01T02:17:23;28.40;87.30
71295;DHT22;59080;31.686;73.862;2022-08-01T02:19:54;28.40;87.20
71295;DHT22;59080;31.686;73.862;2022-08-01T02:22:34;28.50;86.90
71295;DHT22;59080;31.686;73.862;2022-08-01T02:25:18;28.50;86.70
71295;DHT22;59080;31.686;73.862;2022-08-01T02:27:52;28.50;86.60
71295;DHT22;59080;31.686;73.862;2022-08-01T02:30:25;28.50;86.50
71295;DHT22;59080;31.686;73.862;2022-08-01T02:33:04;28.50;86.30
71295;DHT22;59080;31.686;73.862;2022-08-01T02:35:38;28.50;86.40
71295;DHT22;59080;31.686;73.862;2022-08-01T02:38:10;28.50;86.20
71295;DHT22;59080;31.686;73.862;2022-08-01T02:40:43;28.60;86.20
71295;DHT22;59080;31.686;73.862;2022-08-01T02:43:17;28.70;86.40
71295;DHT22;59080;31.686;73.862;2022-08-01T02:45:56;28.70;86.20
71295;DHT22;59080;31.686;73.862;2022-08-01T02:48:27;28.70;86.20
71295;DHT22;59080;31.686;73.862;2022-08-01T02:50:58;28.80;85.80
71295;DHT22;59080;31.686;73.862;2022-08-01T02:53:32;28.90;85.70
71295;DHT22;59080;31.686;73.862;2022-08-01T02:56:06;28.90;85.80
71295;DHT22;59080;31.686;73.862;2022-08-01T02:58:36;29.00;85.70
71295;DHT22;59080;31.686;73.862;2022-08-01T03:01:07;29.00;85.70
71295;DHT22;59080;31.686;73.862;2022-08-01T03:03:37;29.00;85.60
71295;DHT22;59080;31.686;73.862;2022-08-01T03:06:05;29.00;85.70
71295;DHT22;59080;31.686;73.862;2022-08-01T03:08:39;29.00;85.80
71295;DHT22;59080;31.686;73.862;2022-08-01T03:11:11;29.00;85.70
71295;DHT22;59080;31.686;73.862;2022-08-01T03:13:42;29.00;85.70
71295;DHT22;59080;31.686;73.862;2022-08-01T03:16:14;29.00;85.60
71295;DHT22;59080;31.686;73.862;2022-08-01T03:18:45;29.10;85.70
71295;DHT22;59080;31.686;73.862;2022-08-01T03:21:14;29.10;85.60
71295;DHT22;59080;31.686;73.862;2022-08-01T03:23:43;29.10;85.60
71295;DHT22;59080;31.686;73.862;2022-08-01T03:26:13;29.10;85.60
71295;DHT22;59080;31.686;73.862;2022-08-01T03:28:42;29.10;85.50
71295;DHT22;59080;31.686;73.862;2022-08-01T03:31:14;29.10;85.50
71295;DHT22;59080;31.686;73.862;2022-08-01T03:33:43;29.10;85.40
71295;DHT22;59080;31.686;73.862;2022-08-01T03:36:12;29.10;85.40
71295;DHT22;59080;31.686;73.862;2022-08-01T03:38:44;29.10;85.30
71295;DHT22;59080;31.686;73.862;2022-08-01T03:41:20;29.20;85.30
71295;DHT22;59080;31.686;73.862;2022-08-01T03:44:02;29.20;85.20
71295;DHT22;59080;31.686;73.862;2022-08-01T03:46:47;29.20;85.20
71295;DHT22;59080;31.686;73.862;2022-08-01T03:49:33;29.20;85.20
71295;DHT22;59080;31.686;73.862;2022-08-01T03:52:08;29.20;85.20
71295;DHT22;59080;31.686;73.862;2022-08-01T03:54:46;29.20;85.20
71295;DHT22;59080;31.686;73.862;2022-08-01T03:57:17;29.20;85.20
71295;DHT22;59080;31.686;73.862;2022-08-01T03:59:48;29.20;85.10
71295;DHT22;59080;31.686;73.862;2022-08-01T04:02:19;29.30;85.10
71295;DHT22;59080;31.686;73.862;2022-08-01T04:04:47;29.30;85.20
71295;DHT22;59080;31.686;73.862;2022-08-01T04:07:27;29.30;85.00
71295;DHT22;59080;31.686;73.862;2022-08-01T04:09:56;29.30;85.00
71295;DHT22;59080;31.686;73.862;2022-08-01T04:12:24;29.30;84.90
71295;DHT22;59080;31.686;73.862;2022-08-01T04:14:52;29.40;84.90
71295;DHT22;59080;31.686;73.862;2022-08-01T04:17:20;29.40;84.80
71295;DHT22;59080;31.686;73.862;2022-08-01T04:19:49;29.40;84.70
71295;DHT22;59080;31.686;73.862;2022-08-01T04:22:17;29.40;84.80
71295;DHT22;59080;31.686;73.862;2022-08-01T04:24:54;29.40;84.70
71295;DHT22;59080;31.686;73.862;2022-08-01T04:27:31;29.50;84.60
71295;DHT22;59080;31.686;73.862;2022-08-01T04:30:01;29.50;84.60
71295;DHT22;59080;31.686;73.862;2022-08-01T04:32:35;29.50;84.60
71295;DHT22;59080;31.686;73.862;2022-08-01T04:35:07;29.60;84.50
71295;DHT22;59080;31.686;73.862;2022-08-01T04:37:39;29.60;84.50
71295;DHT22;59080;31.686;73.862;2022-08-01T04:40:10;29.60;84.50
71295;DHT22;59080;31.686;73.862;2022-08-01T04:42:42;29.60;84.50
71295;DHT22;59080;31.686;73.862;2022-08-01T04:45:12;29.70;84.50
71295;DHT22;59080;31.686;73.862;2022-08-01T04:47:42;29.60;84.50
71295;DHT22;59080;31.686;73.862;2022-08-01T04:50:10;29.70;84.40
71295;DHT22;59080;31.686;73.862;2022-08-01T04:52:39;29.70;84.40
71295;DHT22;59080;31.686;73.862;2022-08-01T04:55:09;29.70;84.30
71295;DHT22;59080;31.686;73.862;2022-08-01T04:57:40;29.70;84.20
71295;DHT22;59080;31.686;73.862;2022-08-01T05:00:11;29.70;84.30
71295;DHT22;59080;31.686;73.862;2022-08-01T05:02:39;29.70;84.20
71295;DHT22;59080;31.686;73.862;2022-08-01T05:05:08;29.80;84.10
71295;DHT22;59080;31.686;73.862;2022-08-01T05:07:38;29.80;84.10
71295;DHT22;59080;31.686;73.862;2022-08-01T05:10:07;29.80;84.10
71295;DHT22;59080;31.686;73.862;2022-08-01T05:12:35;29.80;84.10
71295;DHT22;59080;31.686;73.862;2022-08-01T05:15:03;29.80;84.10
71295;DHT22;59080;31.686;73.862;2022-08-01T05:17:32;29.90;84.00
71295;DHT22;59080;31.686;73.862;2022-08-01T05:20:00;29.90;84.00
71295;DHT22;59080;31.686;73.862;2022-08-01T05:22:28;29.90;84.00
71295;DHT22;59080;31.686;73.862;2022-08-01T05:24:57;29.90;84.00
71295;DHT22;59080;31.686;73.862;2022-08-01T05:27:27;29.90;83.90
71295;DHT22;59080;31.686;73.862;2022-08-01T05:29:55;30.00;83.80
71295;DHT22;59080;31.686;73.862;2022-08-01T05:32:24;30.00;83.70
71295;DHT22;59080;31.686;73.862;2022-08-01T05:34:52;30.00;83.60
71295;DHT22;59080;31.686;73.862;2022-08-01T05:37:21;30.00;83.60
71295;DHT22;59080;31.686;73.862;2022-08-01T05:39:48;30.00;83.60
71295;DHT22;59080;31.686;73.862;2022-08-01T05:42:17;30.00;83.50
71295;DHT22;59080;31.686;73.862;2022-08-01T05:44:45;30.00;83.30
71295;DHT22;59080;31.686;73.862;2022-08-01T05:47:15;30.00;83.50
71295;DHT22;59080;31.686;73.862;2022-08-01T05:49:43;30.00;83.60
71295;DHT22;59080;31.686;73.862;2022-08-01T05:52:12;30.00;83.60
71295;DHT22;59080;31.686;73.862;2022-08-01T05:54:41;30.00;83.60
71295;DHT22;59080;31.686;73.862;2022-08-01T05:57:09;30.00;83.80
71295;DHT22;59080;31.686;73.862;2022-08-01T05:59:37;30.00;83.80
71295;DHT22;59080;31.686;73.862;2022-08-01T06:02:06;30.00;83.70
71295;DHT22;59080;31.686;73.862;2022-08-01T06:04:34;30.00;83.70
71295;DHT22;59080;31.686;73.862;2022-08-01T06:07:02;30.10;83.70
71295;DHT22;59080;31.686;73.862;2022-08-01T06:09:30;30.10;83.60
71295;DHT22;59080;31.686;73.862;2022-08-01T06:11:58;30.10;83.50
71295;DHT22;59080;31.686;73.862;2022-08-01T06:14:29;30.10;83.30
71295;DHT22;59080;31.686;73.862;2022-08-01T06:16:57;30.20;83.40
71295;DHT22;59080;31.686;73.862;2022-08-01T06:19:25;30.10;83.40
71295;DHT22;59080;31.686;73.862;2022-08-01T06:21:54;30.20;83.30
71295;DHT22;59080;31.686;73.862;2022-08-01T06:24:22;30.20;83.30
71295;DHT22;59080;31.686;73.862;2022-08-01T06:26:51;30.20;83.30
71295;DHT22;59080;31.686;73.862;2022-08-01T06:29:20;30.20;83.20
71295;DHT22;59080;31.686;73.862;2022-08-01T06:31:48;30.20;83.00
71295;DHT22;59080;31.686;73.862;2022-08-01T06:34:16;30.20;82.80
71295;DHT22;59080;31.686;73.862;2022-08-01T06:36:44;30.20;82.70
71295;DHT22;59080;31.686;73.862;2022-08-01T06:39:13;30.30;82.80
71295;DHT22;59080;31.686;73.862;2022-08-01T06:41:41;30.30;82.80
71295;DHT22;59080;31.686;73.862;2022-08-01T06:44:13;30.30;82.80
71295;DHT22;59080;31.686;73.862;2022-08-01T06:46:41;30.30;82.80
71295;DHT22;59080;31.686;73.862;2022-08-01T06:49:09;30.30;82.70
71295;DHT22;59080;31.686;73.862;2022-08-01T06:51:38;30.30;82.70
71295;DHT22;59080;31.686;73.862;2022-08-01T06:54:07;30.30;82.90
71295;DHT22;59080;31.686;73.862;2022-08-01T06:56:35;30.40;82.80
71295;DHT22;59080;31.686;73.862;2022-08-01T06:59:03;30.40;82.70
71295;DHT22;59080;31.686;73.862;2022-08-01T07:01:33;30.40;82.70
71295;DHT22;59080;31.686;73.862;2022-08-01T07:04:01;30.40;82.70
71295;DHT22;59080;31.686;73.862;2022-08-01T07:06:30;30.40;82.50
71295;DHT22;59080;31.686;73.862;2022-08-01T07:08:58;30.40;82.60
71295;DHT22;59080;31.686;73.862;2022-08-01T07:11:29;30.40;82.80
71295;DHT22;59080;31.686;73.862;2022-08-01T07:13:57;30.40;82.80
71295;DHT22;59080;31.686;73.862;2022-08-01T07:16:27;30.40;82.90
71295;DHT22;59080;31.686;73.862;2022-08-01T07:18:56;30.40;82.80
71295;DHT22;59080;31.686;73.862;2022-08-01T07:21:24;30.40;82.70
71295;DHT22;59080;31.686;73.862;2022-08-01T07:23:52;30.50;82.80
71295;DHT22;59080;31.686;73.862;2022-08-01T07:26:20;30.50;82.80
71295;DHT22;59080;31.686;73.862;2022-08-01T07:28:49;30.50;82.80
71295;DHT22;59080;31.686;73.862;2022-08-01T07:31:17;30.50;82.80
71295;DHT22;59080;31.686;73.862;2022-08-01T07:33:46;30.50;82.90
71295;DHT22;59080;31.686;73.862;2022-08-01T07:36:15;30.50;82.90
71295;DHT22;59080;31.686;73.862;2022-08-01T07:38:45;30.50;82.90
71295;DHT22;59080;31.686;73.862;2022-08-01T07:41:15;30.50;83.00
71295;DHT22;59080;31.686;73.862;2022-08-01T07:43:42;30.50;83.00
71295;DHT22;59080;31.686;73.862;2022-08-01T07:46:11;30.60;83.00
71295;DHT22;59080;31.686;73.862;2022-08-01T07:48:39;30.50;82.90
71295;DHT22;59080;31.686;73.862;2022-08-01T07:51:08;30.50;82.90
71295;DHT22;59080;31.686;73.862;2022-08-01T07:53:37;30.60;83.00
71295;DHT22;59080;31.686;73.862;2022-08-01T07:56:05;30.60;82.90
71295;DHT22;59080;31.686;73.862;2022-08-01T07:58:34;30.60;82.90
71295;DHT22;59080;31.686;73.862;2022-08-01T08:01:02;30.60;82.90
71295;DHT22;59080;31.686;73.862;2022-08-01T08:03:31;30.60;82.80
71295;DHT22;59080;31.686;73.862;2022-08-01T08:06:01;30.50;82.90
71295;DHT22;59080;31.686;73.862;2022-08-01T08:08:30;30.60;83.00
71295;DHT22;59080;31.686;73.862;2022-08-01T08:10:59;30.60;83.00
71295;DHT22;59080;31.686;73.862;2022-08-01T08:13:27;30.60;83.00
71295;DHT22;59080;31.686;73.862;2022-08-01T08:15:55;30.60;83.00
71295;DHT22;59080;31.686;73.862;2022-08-01T08:18:26;30.70;83.00
71295;DHT22;59080;31.686;73.862;2022-08-01T08:20:54;30.70;82.90
71295;DHT22;59080;31.686;73.862;2022-08-01T08:23:22;30.70;83.00
71295;DHT22;59080;31.686;73.862;2022-08-01T08:26:08;30.70;82.90
71295;DHT22;59080;31.686;73.862;2022-08-01T08:28:37;30.70;82.90
71295;DHT22;59080;31.686;73.862;2022-08-01T08:31:06;30.70;82.90
71295;DHT22;59080;31.686;73.862;2022-08-01T08:33:35;30.70;82.90
71295;DHT22;59080;31.686;73.862;2022-08-01T08:36:03;30.70;82.90
71295;DHT22;59080;31.686;73.862;2022-08-01T08:38:31;30.70;82.90
71295;DHT22;59080;31.686;73.862;2022-08-01T08:41:00;30.70;82.90
71295;DHT22;59080;31.686;73.862;2022-08-01T08:43:28;30.70;82.90
71295;DHT22;59080;31.686;73.862;2022-08-01T08:45:56;30.70;83.00
71295;DHT22;59080;31.686;73.862;2022-08-01T08:48:25;30.70;83.00
71295;DHT22;59080;31.686;73.862;2022-08-01T08:50:56;30.70;83.00
71295;DHT22;59080;31.686;73.862;2022-08-01T08:53:26;30.80;82.90
71295;DHT22;59080;31.686;73.862;2022-08-01T08:55:57;30.70;82.90
71295;DHT22;59080;31.686;73.862;2022-08-01T08:58:27;30.70;82.90
71295;DHT22;59080;31.686;73.862;2022-08-01T09:00:57;30.80;82.90
71295;DHT22;59080;31.686;73.862;2022-08-01T09:03:26;30.80;82.90
71295;DHT22;59080;31.686;73.862;2022-08-01T09:05:54;30.80;82.90
71295;DHT22;59080;31.686;73.862;2022-08-01T09:08:22;30.80;82.90
71295;DHT22;59080;31.686;73.862;2022-08-01T09:10:50;30.80;82.90
71295;DHT22;59080;31.686;73.862;2022-08-01T09:13:19;30.80;82.80
71295;DHT22;59080;31.686;73.862;2022-08-01T09:15:48;30.90;82.80
71295;DHT22;59080;31.686;73.862;2022-08-01T09:18:32;30.80;82.80
71295;DHT22;59080;31.686;73.862;2022-08-01T09:21:18;30.90;82.80
71295;DHT22;59080;31.686;73.862;2022-08-01T09:23:53;30.90;82.70
71295;DHT22;59080;31.686;73.862;2022-08-01T09:26:33;30.90;82.80
71295;DHT22;59080;31.686;73.862;2022-08-01T09:29:07;30.90;82.70
71295;DHT22;59080;31.686;73.862;2022-08-01T09:31:44;30.90;82.70
71295;DHT22;59080;31.686;73.862;2022-08-01T09:34:15;30.90;82.70
71295;DHT22;59080;31.686;73.862;2022-08-01T09:36:53;31.00;82.70
71295;DHT22;59080;31.686;73.862;2022-08-01T09:39:33;31.00;82.70
71295;DHT22;59080;31.686;73.862;2022-08-01T09:42:26;31.00;82.70
71295;DHT22;59080;31.686;73.862;2022-08-01T09:44:54;31.00;82.70
71295;DHT22;59080;31.686;73.862;2022-08-01T09:47:39;31.00;82.70
71295;DHT22;59080;31.686;73.862;2022-08-01T09:50:08;31.00;82.70
71295;DHT22;59080;31.686;73.862;2022-08-01T09:52:36;31.00;82.70
71295;DHT22;59080;31.686;73.862;2022-08-01T09:55:07;31.00;82.70
71295;DHT22;59080;31.686;73.862;2022-08-01T09:57:35;31.00;82.70
71295;DHT22;59080;31.686;73.862;2022-08-01T10:00:04;31.00;82.70
71295;DHT22;59080;31.686;73.862;2022-08-01T10:02:42;31.00;82.70
71295;DHT22;59080;31.686;73.862;2022-08-01T10:05:10;31.00;82.60
71295;DHT22;59080;31.686;73.862;2022-08-01T10:08:00;31.00;82.60
71295;DHT22;59080;31.686;73.862;2022-08-01T10:10:31;31.00;82.70
71295;DHT22;59080;31.686;73.862;2022-08-01T10:12:59;31.00;82.60
71295;DHT22;59080;31.686;73.862;2022-08-01T10:15:28;31.00;82.60
71295;DHT22;59080;31.686;73.862;2022-08-01T10:18:04;31.00;82.60
71295;DHT22;59080;31.686;73.862;2022-08-01T10:20:34;31.10;82.70
71295;DHT22;59080;31.686;73.862;2022-08-01T10:23:04;31.10;82.70
71295;DHT22;59080;31.686;73.862;2022-08-01T10:25:40;31.10;82.70
71295;DHT22;59080;31.686;73.862;2022-08-01T10:28:18;31.00;82.70
71295;DHT22;59080;31.686;73.862;2022-08-01T10:30:48;31.00;82.80
71295;DHT22;59080;31.686;73.862;2022-08-01T10:33:17;31.10;82.80
71295;DHT22;59080;31.686;73.862;2022-08-01T10:35:46;31.10;82.80
71295;DHT22;59080;31.686;73.862;2022-08-01T10:38:15;31.10;82.80
71295;DHT22;59080;31.686;73.862;2022-08-01T10:40:45;31.10;82.80
71295;DHT22;59080;31.686;73.862;2022-08-01T10:43:14;31.10;82.80
71295;DHT22;59080;31.686;73.862;2022-08-01T10:45:43;31.20;82.70
71295;DHT22;59080;31.686;73.862;2022-08-01T10:51:09;31.20;82.70
71295;DHT22;59080;31.686;73.862;2022-08-01T10:53:47;31.20;82.70
71295;DHT22;59080;31.686;73.862;2022-08-01T10:56:16;31.20;82.70
71295;DHT22;59080;31.686;73.862;2022-08-01T10:58:46;31.20;82.60
71295;DHT22;59080;31.686;73.862;2022-08-01T11:01:26;31.20;82.70
71295;DHT22;59080;31.686;73.862;2022-08-01T11:06:45;31.20;82.60
71295;DHT22;59080;31.686;73.862;2022-08-01T11:12:12;31.30;82.60
71295;DHT22;59080;31.686;73.862;2022-08-01T11:17:38;31.20;82.60
71295;DHT22;59080;31.686;73.862;2022-08-01T11:20:26;31.30;82.60
71295;DHT22;59080;31.686;73.862;2022-08-01T11:30:48;31.30;82.60
71295;DHT22;59080;31.686;73.862;2022-08-01T11:33:19;31.30;82.60
71295;DHT22;59080;31.686;73.862;2022-08-01T11:38:48;31.30;82.60
71295;DHT22;59080;31.686;73.862;2022-08-01T11:41:30;31.30;82.70
71295;DHT22;59080;31.686;73.862;2022-08-01T11:44:08;31.30;82.70
71295;DHT22;59080;31.686;73.862;2022-08-01T11:47:02;31.30;82.70
71295;DHT22;59080;31.686;73.862;2022-08-01T11:49:48;31.20;82.60
71295;DHT22;59080;31.686;73.862;2022-08-01T11:52:26;31.30;82.60
71295;DHT22;59080;31.686;73.862;2022-08-01T11:54:56;31.30;82.60
71295;DHT22;59080;31.686;73.862;2022-08-01T11:57:30;31.20;82.70
71295;DHT22;59080;31.686;73.862;2022-08-01T12:00:12;31.30;82.60
71295;DHT22;59080;31.686;73.862;2022-08-01T12:02:42;31.20;82.70
71295;DHT22;59080;31.686;73.862;2022-08-01T12:05:12;31.30;82.60
71295;DHT22;59080;31.686;73.862;2022-08-01T12:07:42;31.20;82.70
71295;DHT22;59080;31.686;73.862;2022-08-01T12:10:15;31.20;82.70
71295;DHT22;59080;31.686;73.862;2022-08-01T12:12:51;31.30;82.70
71295;DHT22;59080;31.686;73.862;2022-08-01T12:15:23;31.20;82.70
71295;DHT22;59080;31.686;73.862;2022-08-01T12:18:03;31.30;82.70
71295;DHT22;59080;31.686;73.862;2022-08-01T12:20:38;31.20;82.70
71295;DHT22;59080;31.686;73.862;2022-08-01T12:23:09;31.20;82.80
71295;DHT22;59080;31.686;73.862;2022-08-01T12:25:39;31.20;82.80
71295;DHT22;59080;31.686;73.862;2022-08-01T12:28:10;31.30;82.80
71295;DHT22;59080;31.686;73.862;2022-08-01T12:30:41;31.30;82.80
71295;DHT22;59080;31.686;73.862;2022-08-01T12:33:16;31.30;82.80
71295;DHT22;59080;31.686;73.862;2022-08-01T12:35:44;31.30;82.90
71295;DHT22;59080;31.686;73.862;2022-08-01T12:38:19;31.30;82.90
71295;DHT22;59080;31.686;73.862;2022-08-01T12:40:50;31.20;83.00
71295;DHT22;59080;31.686;73.862;2022-08-01T12:43:20;31.20;83.00
71295;DHT22;59080;31.686;73.862;2022-08-01T12:45:50;31.30;83.00
71295;DHT22;59080;31.686;73.862;2022-08-01T12:48:19;31.20;83.10
71295;DHT22;59080;31.686;73.862;2022-08-01T12:50:49;31.20;83.10
71295;DHT22;59080;31.686;73.862;2022-08-01T12:53:21;31.20;83.10
71295;DHT22;59080;31.686;73.862;2022-08-01T12:55:53;31.20;83.20
71295;DHT22;59080;31.686;73.862;2022-08-01T12:58:22;31.20;83.20
71295;DHT22;59080;31.686;73.862;2022-08-01T13:01:04;31.20;83.20
71295;DHT22;59080;31.686;73.862;2022-08-01T13:03:33;31.20;83.20
71295;DHT22;59080;31.686;73.862;2022-08-01T13:06:08;31.20;83.30
71295;DHT22;59080;31.686;73.862;2022-08-01T13:08:37;31.20;83.30
71295;DHT22;59080;31.686;73.862;2022-08-01T13:11:08;31.20;83.40
71295;DHT22;59080;31.686;73.862;2022-08-01T13:13:45;31.20;83.40
71295;DHT22;59080;31.686;73.862;2022-08-01T13:16:24;31.20;83.40
71295;DHT22;59080;31.686;73.862;2022-08-01T13:18:56;31.20;83.50
71295;DHT22;59080;31.686;73.862;2022-08-01T13:21:28;31.20;83.50
71295;DHT22;59080;31.686;73.862;2022-08-01T13:24:11;31.20;83.50
71295;DHT22;59080;31.686;73.862;2022-08-01T13:26:50;31.20;83.60
71295;DHT22;59080;31.686;73.862;2022-08-01T13:29:21;31.20;83.70
71295;DHT22;59080;31.686;73.862;2022-08-01T13:31:50;31.20;83.70
71295;DHT22;59080;31.686;73.862;2022-08-01T13:34:18;31.20;83.70
71295;DHT22;59080;31.686;73.862;2022-08-01T13:36:57;31.10;83.70
71295;DHT22;59080;31.686;73.862;2022-08-01T13:39:31;31.10;83.80
71295;DHT22;59080;31.686;73.862;2022-08-01T13:42:14;31.10;83.80
71295;DHT22;59080;31.686;73.862;2022-08-01T13:44:43;31.10;83.80
71295;DHT22;59080;31.686;73.862;2022-08-01T13:47:14;31.20;83.90
71295;DHT22;59080;31.686;73.862;2022-08-01T13:49:46;31.10;83.90
71295;DHT22;59080;31.686;73.862;2022-08-01T13:52:15;31.10;84.00
71295;DHT22;59080;31.686;73.862;2022-08-01T13:54:44;31.10;84.00
71295;DHT22;59080;31.686;73.862;2022-08-01T13:57:12;31.10;84.00
71295;DHT22;59080;31.686;73.862;2022-08-01T13:59:42;31.10;84.00
71295;DHT22;59080;31.686;73.862;2022-08-01T14:02:10;31.10;84.00
71295;DHT22;59080;31.686;73.862;2022-08-01T14:04:39;31.10;84.00
71295;DHT22;59080;31.686;73.862;2022-08-01T14:07:07;31.10;84.10
71295;DHT22;59080;31.686;73.862;2022-08-01T14:09:35;31.10;84.00
71295;DHT22;59080;31.686;73.862;2022-08-01T14:12:04;31.00;84.00
71295;DHT22;59080;31.686;73.862;2022-08-01T14:14:32;31.10;84.00
71295;DHT22;59080;31.686;73.862;2022-08-01T14:17:01;31.00;84.00
71295;DHT22;59080;31.686;73.862;2022-08-01T14:19:29;31.00;84.00
71295;DHT22;59080;31.686;73.862;2022-08-01T14:21:57;31.00;83.90
71295;DHT22;59080;31.686;73.862;2022-08-01T14:24:26;31.00;83.90
71295;DHT22;59080;31.686;73.862;2022-08-01T14:26:55;31.00;84.00
71295;DHT22;59080;31.686;73.862;2022-08-01T14:29:25;31.00;84.00
71295;DHT22;59080;31.686;73.862;2022-08-01T14:31:56;31.00;84.00
71295;DHT22;59080;31.686;73.862;2022-08-01T14:34:28;31.00;84.10
71295;DHT22;59080;31.686;73.862;2022-08-01T14:36:57;31.00;84.00
71295;DHT22;59080;31.686;73.862;2022-08-01T14:39:25;31.00;84.00
71295;DHT22;59080;31.686;73.862;2022-08-01T14:41:55;31.00;84.00
71295;DHT22;59080;31.686;73.862;2022-08-01T14:44:26;31.00;84.10
71295;DHT22;59080;31.686;73.862;2022-08-01T14:46:57;31.00;84.10
71295;DHT22;59080;31.686;73.862;2022-08-01T14:49:25;30.90;84.10
71295;DHT22;59080;31.686;73.862;2022-08-01T14:51:55;31.00;84.20
71295;DHT22;59080;31.686;73.862;2022-08-01T14:54:24;30.90;84.10
71295;DHT22;59080;31.686;73.862;2022-08-01T14:56:55;30.90;84.20
71295;DHT22;59080;31.686;73.862;2022-08-01T14:59:25;31.00;84.10
71295;DHT22;59080;31.686;73.862;2022-08-01T15:01:53;30.90;84.10
71295;DHT22;59080;31.686;73.862;2022-08-01T15:04:22;30.90;84.20
71295;DHT22;59080;31.686;73.862;2022-08-01T15:06:51;30.90;84.20
71295;DHT22;59080;31.686;73.862;2022-08-01T15:09:21;30.90;84.20
71295;DHT22;59080;31.686;73.862;2022-08-01T15:11:50;30.90;84.20
71295;DHT22;59080;31.686;73.862;2022-08-01T15:14:20;30.90;84.30
71295;DHT22;59080;31.686;73.862;2022-08-01T15:17:09;30.90;84.20
71295;DHT22;59080;31.686;73.862;2022-08-01T15:19:41;30.90;84.30
71295;DHT22;59080;31.686;73.862;2022-08-01T15:22:12;30.90;84.30
71295;DHT22;59080;31.686;73.862;2022-08-01T15:24:42;30.90;84.30
71295;DHT22;59080;31.686;73.862;2022-08-01T15:27:11;30.90;84.40
71295;DHT22;59080;31.686;73.862;2022-08-01T15:29:40;30.80;84.40
71295;DHT22;59080;31.686;73.862;2022-08-01T15:32:12;30.90;84.40
71295;DHT22;59080;31.686;73.862;2022-08-01T15:34:43;30.90;84.40
71295;DHT22;59080;31.686;73.862;2022-08-01T15:37:17;30.90;84.50
71295;DHT22;59080;31.686;73.862;2022-08-01T15:39:51;30.90;84.50
71295;DHT22;59080;31.686;73.862;2022-08-01T15:42:19;30.90;84.60
71295;DHT22;59080;31.686;73.862;2022-08-01T15:44:48;30.90;84.70
71295;DHT22;59080;31.686;73.862;2022-08-01T15:47:16;30.80;84.70
71295;DHT22;59080;31.686;73.862;2022-08-01T15:49:47;30.80;84.70
71295;DHT22;59080;31.686;73.862;2022-08-01T15:52:19;30.80;84.80
71295;DHT22;59080;31.686;73.862;2022-08-01T15:54:51;30.80;84.80
71295;DHT22;59080;31.686;73.862;2022-08-01T15:57:20;30.80;84.90
71295;DHT22;59080;31.686;73.862;2022-08-01T15:59:49;30.80;85.00
71295;DHT22;59080;31.686;73.862;2022-08-01T16:02:18;30.80;85.00
71295;DHT22;59080;31.686;73.862;2022-08-01T16:04:47;30.80;85.00
71295;DHT22;59080;31.686;73.862;2022-08-01T16:07:15;30.80;85.00
71295;DHT22;59080;31.686;73.862;2022-08-01T16:09:46;30.80;85.10
71295;DHT22;59080;31.686;73.862;2022-08-01T16:12:15;30.80;85.10